EW2310 Weather Reports


Display with metric or nautical units.
time (UTC)temp
F
wind
direction
speed
MPH
gust
MPH
rain 1hr
in
rain 24hr
in
rain mn
in
humidity
%
barometer
mb
20190118071053 49 132 0.0 1.0 0.00 0.18 0.00 91 1011.4
20190118070552 49 136 0.0 7.0 0.00 0.18 0.00 91 1011.3
20190118070053 50 139 3.0 7.0 0.00 0.18 0.00 91 1011.3
20190118065552 50 132 5.0 5.0 0.00 0.18 0.00 91 1011.3
20190118065053 50 127 0.0 0.0 0.00 0.18 0.00 92 1011.3
20190118064552 50 126 0.0 0.0 0.00 0.18 0.00 92 1011.3
20190118064052 50 124 0.0 0.0 0.00 0.18 0.00 92 1011.3
20190118063552 49 118 0.0 0.0 0.00 0.18 0.00 92 1011.3
20190118063052 49 134 0.0 0.0 0.00 0.18 0.00 92 1011.3
20190118062553 49 134 0.0 0.0 0.00 0.18 0.00 92 1011.3
20190118062052 49 134 0.0 0.0 0.00 0.18 0.00 92 1011.2
20190118061552 49 134 0.0 0.0 0.00 0.18 0.00 92 1011.1
20190118061052 49 85 0.0 0.0 0.00 0.18 0.00 92 1011.1
20190118060552 49 84 0.0 0.0 0.00 0.18 0.00 92 1011.2
20190118060052 49 83 0.0 0.0 0.00 0.18 0.00 92 1011.3
20190118055552 49 83 0.0 0.0 0.00 0.18 0.00 92 1011.3
20190118055053 49 340 0.0 0.0 0.00 0.18 0.00 92 1011.3
20190118054552 49 323 0.0 0.0 0.00 0.18 0.00 92 1011.3
20190118054052 49 313 0.0 0.0 0.00 0.18 0.00 92 1011.3
20190118053553 49 152 0.0 0.0 0.00 0.18 0.00 92 1011.3
20190118053052 49 132 0.0 0.0 0.00 0.18 0.00 92 1011.2
20190118052552 49 95 0.0 0.0 0.00 0.18 0.00 92 1011.2
20190118052052 49 78 0.0 0.0 0.00 0.18 0.00 92 1011.2
20190118051552 49 80 0.0 0.0 0.00 0.18 0.00 92 1011.2
20190118051052 49 85 0.0 0.0 0.00 0.18 0.00 92 1011.2
20190118050552 49 96 0.0 0.0 0.03 0.18 0.00 92 1011.3
20190118050052 49 111 0.0 0.0 0.04 0.18 0.00 92 1011.3
20190118045552 49 121 0.0 3.0 0.04 0.18 0.00 92 1011.2
20190118045052 49 115 0.0 0.0 0.06 0.18 0.00 92 1011.2
20190118044552 49 89 0.0 0.0 0.06 0.18 0.00 92 1011.2
20190118044052 50 89 0.0 0.0 0.07 0.18 0.00 92 1011.2
20190118043552 50 89 0.0 0.0 0.07 0.18 0.00 92 1011.3
20190118043052 50 88 0.0 0.0 0.07 0.18 0.00 92 1011.2
20190118042555 50 89 0.0 0.0 0.07 0.18 0.00 92 1011.2
20190118042052 50 94 0.0 0.0 0.07 0.18 0.00 92 1011.3
20190118041552 50 107 0.0 0.0 0.07 0.18 0.00 92 1011.2
20190118041052 50 61 0.0 0.0 0.08 0.18 0.00 92 1011.3
20190118040552 50 63 0.0 0.0 0.06 0.15 0.00 92 1011.5
20190118040052 50 63 0.0 0.0 0.06 0.14 0.00 92 1011.5
20190118035552 50 65 0.0 4.0 0.06 0.14 0.00 92 1011.5
20190118035052 50 60 0.0 0.0 0.04 0.12 0.00 92 1011.5
20190118034552 49 72 0.0 0.0 0.04 0.12 0.00 92 1011.6
20190118034052 49 129 0.0 0.0 0.03 0.11 0.00 92 1011.7
20190118033552 49 129 0.0 0.0 0.03 0.11 0.00 92 1011.7
20190118033052 49 129 0.0 0.0 0.03 0.11 0.00 92 1011.6
20190118032552 49 129 0.0 0.0 0.03 0.11 0.00 92 1011.7
20190118032055 49 129 0.0 0.0 0.03 0.11 0.00 92 1011.7
20190118031552 49 129 0.0 0.0 0.03 0.11 0.00 92 1011.8
20190118031052 49 132 0.0 0.0 0.02 0.10 0.00 92 1011.8
20190118030552 49 158 0.0 5.0 0.01 0.09 0.00 92 1012.0
20190118030052 49 119 0.0 8.0 0.00 0.07 0.00 92 1011.8
20190118025552 49 141 5.0 7.0 0.00 0.07 0.00 92 1011.9
20190118025052 49 134 0.0 4.0 0.00 0.07 0.00 92 1012.0
20190118024552 49 135 0.0 8.0 0.00 0.07 0.00 92 1012.0
20190118024052 49 140 0.0 6.0 0.00 0.07 0.00 92 1012.1
20190118023552 49 156 6.0 7.0 0.00 0.07 0.00 92 1012.1
20190118023052 49 152 3.0 9.0 0.00 0.07 0.00 92 1012.2
20190118022552 49 142 4.0 7.0 0.00 0.07 0.00 92 1012.2
20190118022052 49 130 3.0 8.0 0.00 0.07 0.00 92 1012.3
20190118021552 49 137 0.0 1.0 0.00 0.07 0.00 92 1012.4
20190118021052 49 126 0.0 9.0 0.00 0.07 0.00 92 1012.4
20190118020552 49 158 6.0 7.0 0.00 0.07 0.00 92 1012.5
20190118020052 49 133 4.0 8.0 0.00 0.07 0.00 92 1012.6
20190118015552 49 148 3.0 9.0 0.00 0.07 0.00 92 1012.6
20190118015052 49 145 0.0 7.0 0.00 0.07 0.00 92 1012.7
20190118014552 49 138 7.0 8.0 0.00 0.07 0.00 92 1012.7
20190118014052 49 126 4.0 7.0 0.00 0.07 0.00 92 1012.7
20190118013552 49 131 0.0 0.0 0.00 0.07 0.00 92 1012.7
20190118013052 49 130 0.0 3.0 0.00 0.07 0.00 92 1012.8
20190118012552 49 130 2.0 4.0 0.00 0.07 0.00 92 1012.8
20190118012052 49 130 0.0 5.0 0.00 0.07 0.00 92 1012.8
20190118011552 49 127 4.0 7.0 0.00 0.07 0.00 92 1012.8
20190118011052 49 142 0.0 5.0 0.00 0.07 0.00 92 1012.8
20190118010552 49 142 0.0 3.0 0.00 0.07 0.00 92 1012.9
20190118010052 49 142 0.0 4.0 0.00 0.07 0.00 92 1012.9
20190118005552 49 141 3.0 5.0 0.00 0.07 0.00 92 1012.9
20190118005052 49 131 4.0 5.0 0.00 0.07 0.00 92 1012.9
20190118004552 49 142 0.0 0.0 0.00 0.07 0.00 92 1012.9
20190118004052 49 142 0.0 4.0 0.00 0.07 0.00 92 1012.9
20190118003552 49 142 3.0 6.0 0.00 0.07 0.00 92 1013.0
20190118003052 49 144 0.0 4.0 0.00 0.07 0.00 92 1013.0
20190118002552 49 130 4.0 7.0 0.00 0.07 0.00 92 1013.1
20190118002052 49 143 0.0 0.0 0.00 0.07 0.00 92 1013.2
20190118001552 49 143 0.0 5.0 0.00 0.07 0.00 92 1013.1
20190118001052 49 142 3.0 4.0 0.00 0.07 0.00 92 1013.2
20190118000552 49 142 0.0 0.0 0.00 0.07 0.00 92 1013.2
20190118000052 49 142 0.0 0.0 0.00 0.07 0.00 92 1013.2
20190117235552 49 146 0.0 5.0 0.00 0.07 0.00 92 1013.3
20190117235052 49 138 4.0 5.0 0.00 0.07 0.00 92 1013.3
20190117234552 49 146 0.0 0.0 0.00 0.07 0.00 92 1013.2
20190117234052 49 140 0.0 0.0 0.00 0.07 0.00 92 1013.3
20190117233551 49 140 0.0 7.0 0.00 0.07 0.00 92 1013.3
20190117233052 49 128 4.0 7.0 0.00 0.07 0.00 92 1013.3
20190117232551 49 154 0.0 8.0 0.00 0.07 0.00 92 1013.4
20190117232051 49 131 0.0 8.0 0.00 0.07 0.00 92 1013.4
20190117231551 49 136 5.0 7.0 0.00 0.07 0.00 92 1013.4
20190117231052 49 140 0.0 0.0 0.00 0.07 0.00 92 1013.5
20190117230551 49 144 0.0 5.0 0.00 0.07 0.00 92 1013.6
20190117230051 49 144 0.0 5.0 0.00 0.07 0.00 92 1013.6
20190117225551 49 135 4.0 7.0 0.00 0.07 0.00 92 1013.6
20190117225051 49 148 2.0 8.0 0.00 0.07 0.00 93 1013.6
20190117224551 49 143 4.0 8.0 0.00 0.07 0.00 93 1013.6
20190117224051 49 140 0.0 4.0 0.00 0.07 0.00 93 1013.6
20190117223551 49 146 0.0 7.0 0.00 0.07 0.00 93 1013.7
20190117223051 49 133 0.0 1.0 0.00 0.07 0.00 93 1013.6
20190117222551 49 130 5.0 8.0 0.00 0.07 0.00 93 1013.7
20190117222051 49 131 4.0 9.0 0.00 0.07 0.00 92 1013.7
20190117221551 48 136 7.0 9.0 0.00 0.07 0.00 92 1013.8
20190117221051 48 136 4.0 7.0 0.00 0.07 0.00 92 1013.8
20190117220551 48 134 0.0 4.0 0.00 0.07 0.00 92 1013.8
20190117220051 48 136 0.0 6.0 0.00 0.07 0.00 92 1013.8
20190117215551 48 133 3.0 5.0 0.00 0.07 0.00 92 1013.7
20190117215051 48 120 4.0 7.0 0.00 0.07 0.00 92 1013.7
20190117214551 48 109 4.0 6.0 0.00 0.07 0.00 92 1013.7
20190117214054 48 116 0.0 0.0 0.00 0.07 0.00 92 1013.7
20190117213551 48 109 0.0 0.0 0.00 0.07 0.00 92 1013.7
20190117213051 48 121 0.0 6.0 0.00 0.07 0.00 92 1013.7
20190117212551 48 109 2.0 7.0 0.00 0.07 0.00 92 1013.8
20190117212051 48 127 0.0 3.0 0.00 0.07 0.00 92 1013.8
20190117211551 49 111 0.0 0.0 0.00 0.07 0.00 92 1013.7
20190117211051 49 109 0.0 3.0 0.00 0.07 0.00 92 1013.7
20190117210551 49 109 0.0 2.0 0.00 0.07 0.00 91 1013.7
20190117210051 49 109 0.0 3.0 0.00 0.07 0.00 92 1013.7
20190117205552 49 109 0.0 0.0 0.00 0.07 0.00 92 1013.7
20190117205051 49 109 0.0 0.0 0.00 0.07 0.00 91 1013.7
20190117204551 49 109 0.0 0.0 0.00 0.07 0.00 91 1013.6
20190117204051 49 109 0.0 0.0 0.00 0.07 0.00 91 1013.6
20190117203551 49 109 0.0 0.0 0.00 0.07 0.00 91 1013.6
20190117203051 49 109 0.0 0.0 0.00 0.07 0.00 91 1013.4
20190117202551 50 108 0.0 0.0 0.00 0.07 0.00 91 1013.4
20190117202052 50 104 0.0 7.0 0.00 0.07 0.00 91 1013.4
20190117201551 50 99 3.0 7.0 0.00 0.07 0.00 91 1013.5
20190117201051 50 140 0.0 0.0 0.00 0.07 0.00 91 1013.5
20190117200551 51 142 0.0 0.0 0.00 0.07 0.00 91 1013.5
20190117200051 51 146 0.0 0.0 0.00 0.07 0.00 91 1013.6
20190117195551 51 147 0.0 3.0 0.00 0.07 0.00 91 1013.6
20190117195051 51 146 2.0 3.0 0.00 0.07 0.00 91 1013.6
20190117194551 51 146 0.0 3.0 0.00 0.07 0.00 91 1013.7
20190117194051 51 146 0.0 0.0 0.00 0.07 0.00 91 1013.7
20190117193552 51 146 0.0 9.0 0.00 0.07 0.00 91 1013.6
20190117193051 51 148 9.0 9.0 0.00 0.07 0.00 91 1013.5
20190117192551 51 136 7.0 9.0 0.02 0.07 0.00 90 1013.6
20190117192051 50 178 5.0 10.0 0.03 0.07 0.00 90 1013.6
20190117191551 50 141 3.0 10.0 0.04 0.07 0.00 90 1013.6
20190117191051 50 142 5.0 10.0 0.05 0.07 0.00 90 1013.5
20190117190551 50 146 5.0 10.0 0.05 0.07 0.00 90 1013.5
20190117190051 50 158 7.0 11.0 0.05 0.07 0.00 89 1013.6
20190117185551 51 149 0.0 11.0 0.05 0.07 0.00 90 1013.6
20190117185051 51 151 4.0 10.0 0.05 0.07 0.00 90 1013.7
20190117184551 51 159 6.0 11.0 0.05 0.07 0.00 90 1013.7
20190117184051 51 160 6.0 15.0 0.04 0.06 0.00 90 1013.7
20190117183551 51 150 8.0 15.0 0.04 0.06 0.00 89 1013.7
20190117183051 51 198 5.0 13.0 0.04 0.06 0.00 88 1013.7
20190117182552 52 177 7.0 13.0 0.03 0.04 0.00 88 1013.9
20190117182051 52 187 3.0 13.0 0.02 0.03 0.00 88 1013.8
20190117181551 52 221 3.0 15.0 0.00 0.02 0.00 88 1013.8
20190117181051 52 270 6.0 15.0 0.00 0.01 0.00 88 1013.7
20190117180551 52 151 3.0 8.0 0.00 0.01 0.00 88 1013.5
20190117180051 52 156 3.0 11.0 0.00 0.01 0.00 88 1013.5
20190117175551 52 138 12.0 15.0 0.00 0.01 0.00 89 1013.5
20190117175051 51 159 10.0 18.0 0.00 0.01 0.00 90 1013.5
20190117174551 51 140 9.0 10.0 0.00 0.01 0.00 90 1013.6
20190117174051 51 145 0.0 15.0 0.00 0.01 0.00 90 1013.6
20190117173551 51 143 8.0 14.0 0.00 0.01 0.00 90 1013.5
20190117173056 51 130 10.0 16.0 0.00 0.01 0.00 90 1013.5
20190117172551 51 148 14.0 17.0 0.00 0.01 0.00 90 1013.6
20190117172051 51 141 2.0 12.0 0.00 0.01 0.00 90 1013.7
20190117171551 51 156 8.0 13.0 0.00 0.01 0.00 90 1013.8
20190117171051 51 164 0.0 11.0 0.00 0.01 0.00 90 1013.8
20190117170551 51 140 8.0 10.0 0.00 0.01 0.00 90 1013.8
20190117170051 51 163 6.0 13.0 0.00 0.01 0.00 90 1013.9
20190117165551 51 167 3.0 14.0 0.00 0.01 0.00 90 1013.9
20190117165051 51 165 4.0 9.0 0.00 0.01 0.00 89 1013.8
20190117164551 51 134 7.0 13.0 0.00 0.01 0.00 89 1013.7
20190117164051 51 143 10.0 13.0 0.00 0.01 0.00 89 1013.7
20190117163551 51 113 10.0 14.0 0.00 0.01 0.00 89 1013.8
20190117163051 51 130 12.0 15.0 0.00 0.01 0.00 89 1013.8
20190117162551 51 159 15.0 15.0 0.00 0.01 0.00 89 1013.9
20190117162054 51 148 8.0 16.0 0.00 0.01 0.00 89 1014.0
20190117161551 51 129 2.0 17.0 0.00 0.01 0.00 88 1014.0
20190117161051 51 117 9.0 16.0 0.00 0.01 0.00 88 1014.0
20190117160551 52 196 8.0 17.0 0.00 0.01 0.00 88 1014.1
20190117160051 52 130 14.0 19.0 0.00 0.01 0.00 87 1014.1
20190117155551 52 104 14.0 17.0 0.00 0.01 0.00 87 1014.1
20190117155051 52 96 12.0 15.0 0.00 0.01 0.00 87 1014.1
20190117154551 52 196 6.0 13.0 0.00 0.01 0.00 87 1014.1
20190117154051 52 130 0.0 11.0 0.00 0.01 0.00 87 1014.2
20190117153551 52 132 7.0 14.0 0.00 0.01 0.00 87 1014.2
20190117153051 52 126 10.0 18.0 0.00 0.01 0.00 87 1014.2
20190117152551 52 163 10.0 19.0 0.00 0.01 0.00 87 1014.3
20190117152051 52 132 14.0 19.0 0.00 0.01 0.00 87 1014.3
20190117151550 52 126 9.0 17.0 0.00 0.01 0.00 87 1014.3
20190117151050 52 113 12.0 16.0 0.00 0.01 0.00 87 1014.3
20190117150550 52 155 10.0 18.0 0.00 0.01 0.00 87 1014.4
20190117150051 52 113 13.0 13.0 0.00 0.01 0.00 88 1014.4
20190117145551 52 89 11.0 16.0 0.00 0.01 0.00 88 1014.4
20190117145050 52 136 9.0 20.0 0.00 0.01 0.00 87 1014.5
20190117144550 52 146 10.0 15.0 0.00 0.01 0.00 88 1014.5
20190117144050 52 144 10.0 19.0 0.00 0.01 0.00 88 1014.6
20190117143550 52 157 12.0 17.0 0.00 0.01 0.00 87 1014.6
20190117143050 52 142 5.0 16.0 0.00 0.01 0.00 87 1014.5
20190117142550 52 173 8.0 16.0 0.00 0.01 0.00 87 1014.5
20190117142050 52 144 9.0 18.0 0.00 0.01 0.00 87 1014.6
20190117141550 52 170 8.0 17.0 0.00 0.01 0.00 87 1014.6
20190117141050 52 160 9.0 19.0 0.00 0.01 0.00 87 1014.7
20190117140550 52 150 15.0 16.0 0.00 0.01 0.00 86 1014.7
20190117140050 52 127 16.0 20.0 0.00 0.01 0.00 86 1014.7
20190117135550 52 130 16.0 16.0 0.00 0.01 0.00 87 1014.6
20190117135050 52 120 10.0 17.0 0.01 0.01 0.00 87 1014.8
20190117134551 52 130 15.0 18.0 0.01 0.01 0.00 86 1014.7
20190117134050 52 139 12.0 20.0 0.01 0.01 0.00 86 1014.9
20190117133550 53 138 8.0 20.0 0.01 0.01 0.00 86 1015.0
20190117133050 53 145 10.0 20.0 0.01 0.01 0.00 86 1015.0
20190117132550 53 137 12.0 22.0 0.01 0.01 0.00 87 1014.9
20190117132050 53 142 6.0 16.0 0.01 0.01 0.00 88 1014.9
20190117131550 52 130 9.0 15.0 0.01 0.01 0.00 88 1015.0
20190117131050 52 123 12.0 15.0 0.01 0.01 0.00 88 1015.0
20190117130551 52 132 13.0 15.0 0.01 0.01 0.00 87 1015.0
20190117130050 52 138 7.0 18.0 0.00 0.00 0.00 86 1015.1
20190117125550 53 157 14.0 20.0 0.00 0.00 0.00 84 1015.1
20190117125050 53 130 9.0 18.0 0.00 0.00 0.00 82 1015.3
20190117124550 54 128 8.0 23.0 0.00 0.00 0.00 81 1015.3
20190117124051 54 135 7.0 21.0 0.00 0.00 0.00 81 1015.3
20190117123550 54 157 12.0 17.0 0.00 0.00 0.00 81 1015.3
20190117123050 54 131 7.0 20.0 0.00 0.00 0.00 81 1015.4
20190117122550 54 133 14.0 25.0 0.00 0.00 0.00 80 1015.4
20190117122050 54 134 12.0 20.0 0.00 0.00 0.00 80 1015.5
20190117121550 54 153 1.0 21.0 0.00 0.00 0.00 80 1015.6
20190117121050 54 141 12.0 20.0 0.00 0.00 0.00 79 1015.6
20190117120550 54 155 14.0 22.0 0.00 0.00 0.00 79 1015.7
20190117120050 54 153 7.0 18.0 0.00 0.00 0.00 78 1015.7
20190117115550 54 140 11.0 21.0 0.00 0.00 0.00 79 1015.7
20190117115050 54 157 1.0 21.0 0.00 0.00 0.00 79 1015.8
20190117114553 54 142 9.0 20.0 0.00 0.00 0.00 80 1016.0
20190117114050 54 142 14.0 18.0 0.00 0.00 0.00 81 1016.1
20190117113550 53 124 14.0 21.0 0.00 0.00 0.00 80 1016.1
20190117113050 53 141 12.0 16.0 0.00 0.00 0.00 81 1016.2
20190117112550 53 125 15.0 20.0 0.00 0.00 0.00 81 1016.2
20190117112050 53 151 14.0 21.0 0.00 0.00 0.00 81 1016.3
20190117111550 52 134 12.0 22.0 0.00 0.00 0.00 81 1016.4
20190117111050 52 138 17.0 20.0 0.00 0.00 0.00 82 1016.5
20190117110550 52 121 14.0 23.0 0.00 0.00 0.00 82 1016.6
20190117110050 52 111 16.0 22.0 0.00 0.00 0.00 83 1016.7
20190117105550 51 117 9.0 18.0 0.00 0.00 0.00 84 1016.8
20190117105050 51 121 10.0 15.0 0.00 0.00 0.00 84 1017.0
20190117104550 51 150 10.0 13.0 0.00 0.00 0.00 85 1017.0
20190117104050 51 150 6.0 12.0 0.00 0.00 0.00 85 1017.2
20190117103550 50 138 7.0 14.0 0.00 0.00 0.00 84 1017.2
20190117103050 51 157 0.0 11.0 0.00 0.00 0.00 83 1017.3
20190117102550 51 138 4.0 17.0 0.00 0.00 0.00 83 1017.4
20190117102050 51 131 11.0 15.0 0.00 0.00 0.00 82 1017.5
20190117101550 51 144 2.0 15.0 0.00 0.00 0.00 81 1017.6
20190117101050 51 109 15.0 18.0 0.00 0.00 0.00 81 1017.5
20190117100550 51 98 14.0 21.0 0.00 0.00 0.00 80 1017.6
20190117095550 51 161 11.0 14.0 0.00 0.00 0.00 78 1017.8
20190117095050 52 138 10.0 17.0 0.00 0.00 0.00 77 1017.8
20190117094550 52 134 11.0 16.0 0.00 0.00 0.00 76 1017.7
20190117094050 52 144 12.0 17.0 0.00 0.00 0.00 75 1017.7
20190117093556 52 129 11.0 20.0 0.00 0.00 0.00 74 1017.6
20190117093050 52 160 13.0 18.0 0.00 0.00 0.00 74 1017.6
20190117092550 52 123 10.0 18.0 0.00 0.00 0.00 74 1017.7
20190117092050 52 124 14.0 19.0 0.00 0.00 0.00 74 1017.6
20190117091550 52 131 8.0 17.0 0.00 0.00 0.00 74 1017.6
20190117091050 52 135 12.0 20.0 0.00 0.00 0.00 74 1017.6
20190117090550 52 131 9.0 15.0 0.00 0.00 0.00 74 1017.6
20190117090053 52 144 0.0 16.0 0.00 0.00 0.00 73 1017.6
20190117085550 52 137 10.0 17.0 0.00 0.00 0.00 73 1017.6
20190117085050 51 144 14.0 14.0 0.00 0.00 0.00 73 1017.6
20190117084553 51 144 11.0 16.0 0.00 0.00 0.00 73 1017.6
20190117084050 51 105 8.0 16.0 0.00 0.00 0.00 73 1017.5
20190117083550 51 151 8.0 20.0 0.00 0.00 0.00 73 1017.5
20190117083050 51 137 10.0 17.0 0.00 0.00 0.00 73 1017.5
20190117082550 51 130 7.0 14.0 0.00 0.00 0.00 73 1017.5
20190117082050 51 115 12.0 14.0 0.00 0.00 0.00 73 1017.5
20190117081553 51 113 8.0 15.0 0.00 0.00 0.00 73 1017.5
20190117081050 51 153 15.0 15.0 0.00 0.00 0.00 73 1017.4
20190117080550 51 146 9.0 15.0 0.00 0.00 0.00 73 1017.4
20190117080050 51 155 8.0 13.0 0.00 0.00 0.00 73 1017.4
20190117075550 50 120 8.0 13.0 0.00 0.00 0.00 73 1017.5
20190117075050 50 134 0.0 14.0 0.00 0.00 0.00 73 1017.5
20190117074550 50 141 10.0 13.0 0.00 0.00 0.00 73 1017.4
20190117074050 50 142 11.0 13.0 0.00 0.00 0.00 73 1017.4
20190117073550 50 159 5.0 17.0 0.00 0.00 0.00 73 1017.5
20190117073050 50 133 4.0 11.0 0.00 0.00 0.00 73 1017.5
20190117072550 50 148 8.0 13.0 0.00 0.00 0.00 73 1017.5
20190117072050 50 141 9.0 12.0 0.00 0.00 0.00 73 1017.4
20190117071550 50 135 4.0 14.0 0.00 0.00 0.00 73 1017.5